Terminal Aerodrome Forecast
Issued by NWS

Home | Current Version | Previous Version | Graphics & Text | Print | Product List | Glossary On
Versions: 1 2 3 4 5 6 7 8 9 10 11 12 13 14 15 16 17 18 19 20 21
619
FTUS43 KGRB 031136
TAFAUW
TAF
KAUW 031136Z 0312/0412 28004KT P6SM OVC015
     FM031600 27004KT P6SM BKN025
     FM032100 23003KT P6SM BKN030
     FM040600 15003KT P6SM BKN030=

USA.gov is the U.S. government's official web portal to all federal, state and local government web resources and services.